Time;durP1;ratioP1;P1;durP2;ratioP2;P2;SDS_P1;SDS_P2;PMS_P1;PMS_P2;Temp;Humidity;BMP_temperature;BMP_pressure;BME280_temperature;BME280_humidity;BME280_pressure;Samples;Min_cycle;Max_cycle;Signal;HPM_P1;HPM_P2
2022/06/15 00:01:12;;;;;;;7.10;3.28;;;;;;;16.77;57.12;99195.34;4991433;28;20087;-76
2022/06/15 00:03:37;;;;;;;6.63;3.20;;;;;;;16.79;57.19;99186.97;5006799;28;20030;-76
2022/06/15 00:06:08;;;;;;;4.07;3.00;;;;;;;16.57;57.01;99186.56;5009159;28;20357;-76
2022/06/15 00:08:34;;;;;;;3.55;2.63;;;;;;;16.81;56.95;99190.19;5004509;28;20525;-76
2022/06/15 00:11:09;;;;;;;3.85;2.70;;;;;;;16.74;57.27;99182.41;5007733;28;20040;-77
2022/06/15 00:13:34;;;;;;;3.50;3.10;;;;;;;16.88;56.57;99187.97;5006474;28;20490;-76
2022/06/15 00:16:00;;;;;;;4.78;3.10;;;;;;;16.78;56.85;99185.34;5002735;28;20036;-76
2022/06/15 00:18:28;;;;;;;5.70;3.00;;;;;;;16.78;56.66;99186.16;5007187;28;20393;-76
2022/06/15 00:20:55;;;;;;;3.45;3.10;;;;;;;16.54;57.28;99162.84;5006588;28;20026;-76
2022/06/15 00:23:20;;;;;;;7.13;3.60;;;;;;;16.10;58.42;99187.84;5008341;28;20084;-76
2022/06/15 00:25:50;;;;;;;8.00;4.57;;;;;;;15.74;59.90;99184.47;5009119;28;20065;-76
2022/06/15 00:28:15;;;;;;;9.75;3.60;;;;;;;16.25;58.34;99184.28;5005486;28;20044;-76
2022/06/15 00:30:41;;;;;;;7.00;2.95;;;;;;;16.50;57.10;99186.88;5003719;28;20538;-76
2022/06/15 00:33:06;;;;;;;3.80;3.15;;;;;;;16.54;57.54;99195.19;5002547;28;20069;-76
2022/06/15 00:35:31;;;;;;;4.55;2.65;;;;;;;16.44;57.36;99182.56;5008610;28;20026;-76
2022/06/15 00:37:57;;;;;;;5.82;3.33;;;;;;;16.34;57.28;99183.41;4990298;28;20060;-76
2022/06/15 00:40:22;;;;;;;5.22;2.90;;;;;;;16.60;56.91;99188.72;5008407;28;20026;-76
2022/06/15 00:42:47;;;;;;;4.57;3.13;;;;;;;16.47;57.48;99195.47;5007178;28;20666;-76
2022/06/15 00:45:13;;;;;;;3.92;3.03;;;;;;;16.39;57.07;99188.78;5010149;28;20029;-76
2022/06/15 00:47:41;;;;;;;5.18;2.95;;;;;;;16.49;57.23;99194.09;5002526;28;20038;-76
2022/06/15 00:50:16;;;;;;;4.53;3.05;;;;;;;16.56;57.12;99185.75;5007076;28;20033;-76
2022/06/15 00:52:54;;;;;;;6.60;4.50;;;;;;;16.45;57.57;99190.38;5008511;28;20606;-76
2022/06/15 00:55:23;;;;;;;4.40;3.65;;;;;;;16.27;57.66;99174.81;5008017;28;20298;-76
2022/06/15 00:57:50;;;;;;;6.90;3.45;;;;;;;16.07;57.96;99185.72;5006383;28;20030;-76
2022/06/15 01:00:16;;;;;;;4.20;3.88;;;;;;;16.02;58.30;99183.03;5028113;28;20064;-76
2022/06/15 01:02:42;;;;;;;3.53;2.95;;;;;;;16.09;57.71;99171.97;5004814;28;20259;-77
2022/06/15 01:05:16;;;;;;;5.63;3.08;;;;;;;16.04;57.90;99167.41;5010804;28;20034;-76
2022/06/15 01:08:00;;;;;;;4.70;2.97;;;;;;;15.97;58.07;99180.34;5004351;28;20033;-76
2022/06/15 01:10:57;;;;;;;3.00;2.75;;;;;;;16.24;57.38;99170.00;5003429;28;20192;-76
2022/06/15 01:13:56;;;;;;;4.22;3.20;;;;;;;16.26;57.71;99162.47;5005134;28;20042;-76
2022/06/15 01:16:37;;;;;;;3.28;2.97;;;;;;;15.99;57.99;99163.94;5004405;28;20060;-77
2022/06/15 01:19:21;;;;;;;7.00;3.53;;;;;;;15.84;58.24;99159.41;5003500;28;20445;-76
2022/06/15 01:22:31;;;;;;;6.68;3.35;;;;;;;15.82;58.35;99155.38;5001366;28;20446;-77
2022/06/15 01:25:27;;;;;;;3.75;3.45;;;;;;;15.73;58.45;99155.13;4998775;28;20041;-76
2022/06/15 01:28:14;;;;;;;6.80;3.53;;;;;;;15.75;58.21;99156.47;5006211;28;20473;-76
2022/06/15 01:30:53;;;;;;;6.40;3.60;;;;;;;14.73;61.41;99156.84;5006666;28;20034;-76
2022/06/15 01:33:33;;;;;;;4.95;3.50;;;;;;;15.18;59.90;99157.91;5004883;28;20139;-77
2022/06/15 01:36:28;;;;;;;6.63;3.70;;;;;;;15.67;58.64;99143.59;5000978;28;20026;-77
2022/06/15 01:39:17;;;;;;;5.10;3.45;;;;;;;15.89;58.49;99147.81;5000304;28;20428;-77
2022/06/15 01:42:00;;;;;;;3.92;3.58;;;;;;;15.95;58.15;99144.00;5003256;28;20017;-77
2022/06/15 01:44:35;;;;;;;4.80;3.60;;;;;;;15.44;59.20;99146.06;5003789;28;20048;-77
2022/06/15 01:47:04;;;;;;;5.55;3.55;;;;;;;13.92;63.51;99149.63;5003481;28;20030;-77
2022/06/15 01:49:36;;;;;;;4.30;3.63;;;;;;;13.32;65.71;99148.22;5005357;28;20444;-77
2022/06/15 01:52:04;;;;;;;11.15;4.75;;;;;;;13.56;64.58;99145.97;5004924;28;20033;-77
2022/06/15 01:54:37;;;;;;;6.35;4.70;;;;;;;12.98;66.63;99164.81;4987114;28;20084;-76
2022/06/15 01:57:04;;;;;;;8.02;5.18;;;;;;;12.48;68.29;99170.53;5004767;28;20038;-77
2022/06/15 01:59:49;;;;;;;11.75;5.00;;;;;;;13.55;65.07;99165.81;5006490;28;20071;-76
2022/06/15 02:02:51;;;;;;;7.00;4.00;;;;;;;14.50;61.98;99162.72;5005191;28;20049;-76
2022/06/15 02:05:37;;;;;;;6.28;3.50;;;;;;;15.31;59.59;99154.69;5004406;28;20056;-77
2022/06/15 02:08:12;;;;;;;9.23;3.95;;;;;;;15.24;59.47;99154.94;5003351;28;20117;-76
2022/06/15 02:10:59;;;;;;;5.05;4.28;;;;;;;14.78;60.65;99159.53;5004615;28;20033;-76
2022/06/15 02:13:50;;;;;;;5.95;3.75;;;;;;;14.41;62.07;99139.34;5007529;28;20022;-76
2022/06/15 02:16:28;;;;;;;3.95;3.63;;;;;;;15.24;59.23;99133.44;5005020;28;20029;-77
2022/06/15 02:18:55;;;;;;;6.78;3.53;;;;;;;15.16;59.61;99144.72;5002508;28;20559;-76
2022/06/15 02:21:24;;;;;;;4.65;3.95;;;;;;;15.16;59.55;99138.56;5000533;28;20026;-77
2022/06/15 02:23:55;;;;;;;4.05;3.58;;;;;;;15.17;59.73;99135.59;5005644;28;20104;-76
2022/06/15 02:26:24;;;;;;;5.43;3.83;;;;;;;15.21;59.44;99133.97;5003858;28;20164;-76
2022/06/15 02:28:54;;;;;;;11.15;4.05;;;;;;;15.26;59.45;99127.78;5020016;28;20312;-76
2022/06/15 02:31:20;;;;;;;6.47;3.65;;;;;;;15.26;59.01;99127.78;5010869;28;20029;-76
2022/06/15 02:33:48;;;;;;;6.55;4.32;;;;;;;15.43;58.78;99145.25;5003323;28;20187;-76
2022/06/15 02:36:14;;;;;;;4.00;3.58;;;;;;;15.30;59.16;99134.22;5012351;28;20506;-76
2022/06/15 02:38:42;;;;;;;4.75;3.75;;;;;;;15.12;59.63;99140.97;4992028;28;20030;-77
2022/06/15 02:41:08;;;;;;;6.10;4.25;;;;;;;15.08;59.32;99122.97;5009690;28;20057;-76
2022/06/15 02:43:35;;;;;;;7.05;3.88;;;;;;;15.06;59.86;99138.56;5007409;28;20108;-77
2022/06/15 02:46:02;;;;;;;4.65;3.70;;;;;;;15.26;59.35;99128.59;5008933;28;20044;-77
2022/06/15 02:48:29;;;;;;;4.47;4.07;;;;;;;14.69;60.15;99125.41;4991988;28;20116;-77
2022/06/15 02:50:59;;;;;;;10.25;4.20;;;;;;;14.99;59.61;99120.00;5006158;28;20029;-76
2022/06/15 02:53:29;;;;;;;9.38;4.70;;;;;;;14.01;61.88;99119.34;5007455;28;20036;-76
2022/06/15 02:55:57;;;;;;;5.72;4.32;;;;;;;13.62;63.26;99123.47;5006899;28;20390;-76
2022/06/15 02:58:36;;;;;;;8.00;5.28;;;;;;;13.37;64.21;99132.19;5012370;28;20033;-77
2022/06/15 03:01:03;;;;;;;10.35;4.60;;;;;;;13.24;64.28;99127.28;5004739;28;20040;-77
2022/06/15 03:03:30;;;;;;;4.65;3.92;;;;;;;14.33;62.13;99121.84;4992715;28;20034;-76
2022/06/15 03:05:55;;;;;;;6.45;4.30;;;;;;;14.75;60.07;99111.69;5025622;28;20037;-77
2022/06/15 03:08:22;;;;;;;4.80;4.35;;;;;;;14.69;59.82;99126.22;5006446;28;20041;-76
2022/06/15 03:10:51;;;;;;;6.47;4.28;;;;;;;15.06;59.38;99109.78;5007079;28;20049;-77
2022/06/15 03:13:17;;;;;;;4.40;3.95;;;;;;;15.02;59.35;99103.34;5004616;28;20505;-76
2022/06/15 03:15:42;;;;;;;7.93;4.57;;;;;;;14.94;59.18;99107.38;5007783;28;20026;-76
2022/06/15 03:18:08;;;;;;;5.05;3.97;;;;;;;14.83;59.55;99103.09;5006839;28;20030;-76
2022/06/15 03:20:33;;;;;;;6.93;4.15;;;;;;;14.61;60.24;99107.13;4990520;28;20041;-76
2022/06/15 03:22:59;;;;;;;8.63;5.00;;;;;;;14.08;61.99;99105.66;5006776;28;20030;-76
2022/06/15 03:25:24;;;;;;;5.28;4.13;;;;;;;13.09;64.33;99104.91;5007609;28;20432;-76
2022/06/15 03:27:50;;;;;;;7.60;5.63;;;;;;;12.06;68.73;99118.72;4989083;28;20038;-77
2022/06/15 03:30:16;;;;;;;8.88;6.38;;;;;;;11.41;70.82;99124.84;5005093;28;20133;-76
2022/06/15 03:32:42;;;;;;;7.68;5.72;;;;;;;11.50;70.35;99112.66;5007121;28;20048;-76
2022/06/15 03:35:08;;;;;;;6.40;5.80;;;;;;;12.48;66.92;99130.38;5008776;28;20493;-76
2022/06/15 03:37:34;;;;;;;9.00;5.18;;;;;;;13.24;64.96;99118.41;5008437;28;20029;-76
2022/06/15 03:39:59;;;;;;;6.15;4.78;;;;;;;14.17;62.15;99122.88;4987758;28;20041;-76
2022/06/15 03:42:26;;;;;;;6.15;4.55;;;;;;;14.62;60.92;99114.09;5023366;28;20026;-76
2022/06/15 03:44:53;;;;;;;7.57;4.93;;;;;;;14.63;60.61;99099.59;5004727;28;20064;-77
2022/06/15 03:47:20;;;;;;;5.15;4.63;;;;;;;14.61;60.81;99112.50;5008305;28;20041;-77
2022/06/15 03:49:51;;;;;;;6.10;4.60;;;;;;;14.58;60.70;99107.66;5006896;28;20034;-76
2022/06/15 03:52:18;;;;;;;5.03;4.40;;;;;;;14.65;60.82;99103.63;5005776;28;20037;-76
2022/06/15 03:54:44;;;;;;;8.35;6.10;;;;;;;14.12;63.37;99112.94;5001532;28;20057;-77
2022/06/15 03:57:12;;;;;;;8.77;7.80;;;;;;;12.93;68.12;99117.38;5005206;28;20394;-76
2022/06/15 03:59:37;;;;;;;10.38;5.97;;;;;;;12.20;70.76;99111.91;5008147;28;20038;-78
2022/06/15 04:02:03;;;;;;;6.28;4.55;;;;;;;12.70;68.67;99118.53;4989033;28;20040;-77
2022/06/15 04:04:29;;;;;;;6.40;5.15;;;;;;;14.02;63.63;99110.19;5005900;28;20026;-77
2022/06/15 04:06:54;;;;;;;7.85;6.60;;;;;;;13.82;66.81;99099.41;5006225;28;20030;-77
2022/06/15 04:09:21;;;;;;;6.93;4.95;;;;;;;13.91;64.74;99105.09;5005098;28;20129;-78
2022/06/15 04:11:59;;;;;;;6.90;5.03;;;;;;;14.56;62.32;99083.75;5004372;28;20038;-77
2022/06/15 04:14:35;;;;;;;7.97;4.65;;;;;;;14.56;62.52;99081.06;4989893;28;20247;-77
2022/06/15 04:17:01;;;;;;;6.43;4.93;;;;;;;14.60;62.47;99086.69;4991987;28;20038;-77
2022/06/15 04:19:32;;;;;;;10.80;7.00;;;;;;;13.78;68.40;99092.94;5006922;28;20030;-78
2022/06/15 04:21:58;;;;;;;11.52;7.55;;;;;;;13.04;71.06;99107.56;5005771;28;20573;-77
2022/06/15 04:24:27;;;;;;;9.80;7.95;;;;;;;12.81;72.51;99100.69;5005470;28;20033;-77
2022/06/15 04:26:53;;;;;;;8.10;7.05;;;;;;;13.01;72.90;99103.50;4987974;28;20567;-77
2022/06/15 04:29:20;;;;;;;10.70;7.05;;;;;;;13.28;72.25;99096.19;5005237;28;20037;-77
2022/06/15 04:31:46;;;;;;;9.32;8.13;;;;;;;13.35;72.73;99101.31;5005041;28;20134;-77
2022/06/15 04:34:12;;;;;;;12.52;7.63;;;;;;;13.56;72.00;99100.38;5008696;28;20036;-77
2022/06/15 04:36:39;;;;;;;9.95;7.00;;;;;;;13.83;71.16;99100.19;5005720;28;20046;-77
2022/06/15 04:39:08;;;;;;;6.25;5.35;;;;;;;14.17;68.23;99091.47;4986337;28;20030;-78
2022/06/15 04:41:38;;;;;;;11.55;6.65;;;;;;;13.90;69.26;99100.78;4989375;28;20025;-77
2022/06/15 04:44:05;;;;;;;9.88;6.75;;;;;;;13.11;71.91;99105.47;5003082;28;20028;-77
2022/06/15 04:46:32;;;;;;;8.23;6.38;;;;;;;13.30;71.22;99115.50;5006611;28;20398;-77
2022/06/15 04:48:57;;;;;;;11.65;6.63;;;;;;;13.46;71.27;99101.13;5008634;28;20033;-76
2022/06/15 04:51:25;;;;;;;11.45;6.13;;;;;;;14.17;70.95;99101.41;5004598;28;20036;-77
2022/06/15 04:53:53;;;;;;;10.88;6.43;;;;;;;14.62;68.96;99114.91;5002040;28;20498;-78
2022/06/15 04:56:20;;;;;;;6.35;5.25;;;;;;;15.15;66.41;99112.75;5006844;28;20038;-77
2022/06/15 04:58:46;;;;;;;9.15;4.78;;;;;;;15.21;66.75;99106.28;5004059;28;20038;-78
2022/06/15 05:01:13;;;;;;;10.05;5.85;;;;;;;14.84;68.61;99117.34;5000009;28;20028;-77
2022/06/15 05:03:39;;;;;;;11.23;4.78;;;;;;;15.18;67.69;99106.81;5007721;28;20025;-77
2022/06/15 05:06:09;;;;;;;9.15;5.97;;;;;;;15.21;67.09;99101.69;5005360;28;20056;-77
2022/06/15 05:08:36;;;;;;;6.38;4.88;;;;;;;15.50;64.58;99115.38;4999694;28;20040;-77
2022/06/15 05:11:01;;;;;;;9.68;4.63;;;;;;;16.03;62.54;99114.63;5004701;28;20037;-78
2022/06/15 05:13:27;;;;;;;9.18;6.05;;;;;;;15.62;64.93;99116.69;5007523;28;20037;-77
2022/06/15 05:15:53;;;;;;;8.57;4.90;;;;;;;15.80;63.69;99117.97;5009580;28;20041;-77
2022/06/15 05:18:19;;;;;;;6.20;4.82;;;;;;;15.41;65.87;99114.31;5007511;28;20034;-77
2022/06/15 05:20:44;;;;;;;8.10;4.72;;;;;;;15.39;65.57;99122.66;5010080;28;20060;-77
2022/06/15 05:23:16;;;;;;;13.82;6.10;;;;;;;15.43;66.29;99115.66;5001892;28;20460;-77
2022/06/15 05:25:42;;;;;;;11.75;6.43;;;;;;;14.99;67.46;99114.63;5004273;28;20056;-77
2022/06/15 05:28:09;;;;;;;9.38;6.65;;;;;;;15.41;66.91;99115.09;5008128;28;20109;-77
2022/06/15 05:30:35;;;;;;;10.30;6.38;;;;;;;15.62;66.19;99126.63;5006420;28;20030;-77
2022/06/15 05:33:01;;;;;;;9.00;4.82;;;;;;;15.29;68.00;99108.44;5010066;28;20030;-77
2022/06/15 05:35:27;;;;;;;12.20;6.95;;;;;;;15.50;67.21;99120.75;5007998;28;20029;-77
2022/06/15 05:37:52;;;;;;;10.43;6.70;;;;;;;14.86;69.27;99117.88;5002981;28;20030;-77
2022/06/15 05:40:18;;;;;;;6.68;5.82;;;;;;;15.47;67.39;99114.03;4990390;28;20506;-77
2022/06/15 05:42:43;;;;;;;10.90;5.95;;;;;;;15.84;64.84;99116.31;5009054;28;20042;-77
2022/06/15 05:45:09;;;;;;;8.60;6.03;;;;;;;15.26;67.66;99125.09;5008452;28;20037;-77
2022/06/15 05:47:35;;;;;;;15.18;7.18;;;;;;;15.15;69.61;99115.44;5001246;28;20038;-77
2022/06/15 05:50:00;;;;;;;13.30;7.40;;;;;;;15.26;69.20;99122.41;4990243;28;20066;-77
2022/06/15 05:52:26;;;;;;;9.00;6.53;;;;;;;14.85;70.66;99109.00;5004274;28;20084;-77
2022/06/15 05:54:51;;;;;;;8.60;5.38;;;;;;;15.31;67.52;99125.88;5001077;28;20021;-77
2022/06/15 05:57:22;;;;;;;9.85;5.80;;;;;;;14.90;67.92;99130.50;5008495;28;20407;-77
2022/06/15 05:59:48;;;;;;;6.50;4.55;;;;;;;15.95;64.82;99127.84;4997236;28;20089;-77
2022/06/15 06:02:16;;;;;;;10.77;5.47;;;;;;;16.38;64.83;99130.59;5005603;28;20038;-77
2022/06/15 06:04:41;;;;;;;11.27;6.30;;;;;;;15.31;66.38;99123.19;5009207;28;20422;-77
2022/06/15 06:07:10;;;;;;;15.57;7.03;;;;;;;15.11;68.34;99128.63;5008147;28;20030;-77
2022/06/15 06:09:36;;;;;;;14.48;6.97;;;;;;;15.14;69.06;99125.38;5005803;28;20457;-77
2022/06/15 06:12:02;;;;;;;17.45;7.13;;;;;;;14.43;67.92;99121.06;5011370;28;20033;-77
2022/06/15 06:14:27;;;;;;;12.52;6.13;;;;;;;14.64;68.40;99115.44;4998141;28;20120;-77
2022/06/15 06:16:53;;;;;;;11.98;6.55;;;;;;;14.83;68.28;99123.81;5010504;28;20110;-77
2022/06/15 06:19:18;;;;;;;9.40;5.85;;;;;;;15.10;67.94;99126.19;5014680;28;20068;-77
2022/06/15 06:21:44;;;;;;;13.93;5.05;;;;;;;15.21;68.28;99125.91;5007865;28;20128;-77
2022/06/15 06:24:10;;;;;;;12.48;5.75;;;;;;;15.44;67.93;99124.56;5007463;28;20026;-77
2022/06/15 06:26:36;;;;;;;10.43;5.85;;;;;;;15.33;67.43;99120.25;5011099;28;20405;-77
2022/06/15 06:29:03;;;;;;;9.68;5.70;;;;;;;15.23;67.38;99113.00;5012531;28;20029;-77
2022/06/15 06:31:29;;;;;;;10.43;4.68;;;;;;;15.71;66.48;99117.72;5014281;28;20033;-77
2022/06/15 06:33:55;;;;;;;14.10;6.93;;;;;;;15.61;66.65;99119.66;5013913;28;20033;-77
2022/06/15 06:36:33;;;;;;;15.73;5.95;;;;;;;15.46;65.78;99104.38;5011238;28;20028;-77
2022/06/15 06:39:01;;;;;;;6.65;4.00;;;;;;;16.60;63.23;99129.41;5006320;28;20053;-77
2022/06/15 06:41:28;;;;;;;8.98;4.70;;;;;;;17.07;62.39;99116.88;5012627;28;20036;-77
2022/06/15 06:43:54;;;;;;;13.52;6.38;;;;;;;16.63;64.86;99124.25;5004633;28;20026;-77
2022/06/15 06:46:19;;;;;;;7.82;5.18;;;;;;;16.15;66.31;99125.88;5010376;28;20111;-77
2022/06/15 06:48:45;;;;;;;8.75;6.13;;;;;;;16.24;65.83;99124.22;5011517;28;20113;-77
2022/06/15 06:51:11;;;;;;;16.33;5.47;;;;;;;16.20;65.69;99120.47;5010480;28;20246;-77
2022/06/15 06:53:37;;;;;;;9.43;4.90;;;;;;;16.59;63.55;99117.81;5010951;28;20048;-77
2022/06/15 06:56:04;;;;;;;9.35;3.30;;;;;;;17.35;61.19;99125.25;5011228;28;20029;-77
2022/06/15 06:58:30;;;;;;;11.70;5.47;;;;;;;16.76;63.07;99123.63;5013733;28;20500;-78
2022/06/15 07:01:02;;;;;;;8.90;5.15;;;;;;;16.59;64.14;99125.91;4997610;28;20080;-78
2022/06/15 07:03:28;;;;;;;9.80;5.13;;;;;;;16.47;63.84;99123.53;5012290;28;20057;-77
2022/06/15 07:06:06;;;;;;;7.50;4.03;;;;;;;17.12;61.84;99116.81;5014424;28;20029;-77
2022/06/15 07:08:33;;;;;;;8.30;4.78;;;;;;;16.97;61.33;99116.19;5012057;28;20022;-77
2022/06/15 07:10:59;;;;;;;7.07;4.10;;;;;;;17.54;60.58;99121.56;5014867;28;20389;-77
2022/06/15 07:13:25;;;;;;;5.55;3.35;;;;;;;17.54;59.96;99109.97;5014610;28;20030;-77
2022/06/15 07:15:50;;;;;;;6.63;4.72;;;;;;;17.57;60.58;99120.19;5012731;28;20030;-77
2022/06/15 07:18:16;;;;;;;7.28;3.83;;;;;;;16.75;61.52;99123.91;5013042;28;20391;-77
2022/06/15 07:20:42;;;;;;;5.43;3.15;;;;;;;17.83;59.38;99114.19;5008714;28;20057;-77
2022/06/15 07:23:08;;;;;;;5.55;3.25;;;;;;;18.58;57.85;99119.69;5010483;28;20033;-77
2022/06/15 07:25:33;;;;;;;11.75;4.72;;;;;;;18.37;58.11;99116.44;5005622;28;20417;-77
2022/06/15 07:27:59;;;;;;;7.78;3.65;;;;;;;18.04;57.92;99116.66;5008614;28;20029;-77
2022/06/15 07:30:26;;;;;;;6.18;3.42;;;;;;;17.50;57.11;99125.91;5009187;28;20065;-77
2022/06/15 07:32:52;;;;;;;4.97;2.90;;;;;;;17.93;58.71;99116.00;4999680;28;20042;-78
2022/06/15 07:35:20;;;;;;;5.65;3.10;;;;;;;18.65;57.04;99115.50;5010814;28;20052;-77
2022/06/15 07:37:46;;;;;;;7.68;3.60;;;;;;;18.57;57.94;99112.66;5011419;28;20029;-77
2022/06/15 07:40:12;;;;;;;6.82;3.03;;;;;;;19.10;55.95;99108.56;5008818;28;20041;-77
2022/06/15 07:42:38;;;;;;;6.80;4.22;;;;;;;18.77;57.97;99112.34;5004345;28;20049;-78
2022/06/15 07:45:05;;;;;;;7.55;4.18;;;;;;;18.50;59.01;99113.03;5007691;28;20069;-77
2022/06/15 07:50:16;;;;;;;5.13;3.17;;;;;;;19.24;57.56;99108.59;5010918;28;20037;-77
2022/06/15 07:52:43;;;;;;;8.80;3.17;;;;;;;19.46;55.73;99116.06;5005687;28;20034;-77
2022/06/15 07:55:14;;;;;;;8.55;3.58;;;;;;;18.46;59.15;99116.63;5002689;28;20021;-77
2022/06/15 07:57:40;;;;;;;6.80;4.07;;;;;;;18.26;59.98;99114.19;5002158;28;20429;-77
2022/06/15 08:00:08;;;;;;;10.10;4.00;;;;;;;18.03;58.91;99088.84;4993520;28;20030;-77
2022/06/15 08:02:33;;;;;;;4.45;2.47;;;;;;;18.85;57.40;99111.66;5009468;28;20134;-77
2022/06/15 08:04:59;;;;;;;7.63;3.17;;;;;;;18.70;59.41;99110.03;5010275;28;20125;-76
2022/06/15 08:07:25;;;;;;;6.53;3.13;;;;;;;18.50;58.08;99088.69;5008357;28;20053;-77
2022/06/15 08:09:50;;;;;;;6.82;3.25;;;;;;;18.19;59.06;99108.34;5008268;28;20347;-77
2022/06/15 08:12:16;;;;;;;7.85;3.25;;;;;;;18.56;59.09;99092.16;5009515;28;20527;-77
2022/06/15 08:14:49;;;;;;;4.53;2.55;;;;;;;19.59;57.42;99097.13;5007101;28;20569;-77
2022/06/15 08:17:49;;;;;;;6.05;3.15;;;;;;;19.17;56.97;99090.03;5006963;28;20447;-76
2022/06/15 08:20:20;;;;;;;9.57;3.33;;;;;;;19.09;57.23;99069.06;5004512;28;20397;-76
2022/06/15 08:22:50;;;;;;;6.65;2.92;;;;;;;19.35;57.77;99100.00;5003105;28;20033;-77
2022/06/15 08:25:22;;;;;;;10.40;3.38;;;;;;;19.02;59.57;99084.91;4992968;28;20034;-77
2022/06/15 08:27:48;;;;;;;4.63;2.53;;;;;;;20.13;55.35;99093.53;5000570;28;20022;-77
2022/06/15 08:30:15;;;;;;;6.95;3.13;;;;;;;19.94;56.64;99088.25;5008885;28;20036;-77
2022/06/15 08:32:41;;;;;;;10.80;3.50;;;;;;;20.24;57.97;99096.84;5011205;28;20389;-76
2022/06/15 08:35:07;;;;;;;4.95;2.33;;;;;;;20.24;55.39;99086.00;5010556;28;20068;-77
2022/06/15 08:37:33;;;;;;;6.97;3.70;;;;;;;20.56;54.33;99073.03;5008829;28;20482;-76
2022/06/15 08:39:58;;;;;;;6.13;2.33;;;;;;;20.33;55.72;99084.19;5008578;28;20084;-77
2022/06/15 08:42:50;;;;;;;6.47;3.30;;;;;;;20.32;57.50;99086.09;5009323;28;20068;-77
2022/06/15 08:45:29;;;;;;;6.55;2.40;;;;;;;20.82;54.31;99084.88;5005940;28;20026;-77
2022/06/15 08:48:20;;;;;;;8.57;2.35;;;;;;;20.79;54.90;99084.72;5020609;28;20117;-77
2022/06/15 08:50:55;;;;;;;8.50;3.03;;;;;;;20.68;55.21;99080.63;5007790;28;20044;-77
2022/06/15 08:53:41;;;;;;;5.70;3.30;;;;;;;20.46;56.32;99088.75;5009513;28;20484;-77
2022/06/15 08:56:22;;;;;;;5.25;2.17;;;;;;;21.13;53.78;99076.78;5008032;28;20025;-77
2022/06/15 08:59:04;;;;;;;9.40;2.45;;;;;;;21.10;54.03;99079.34;5009878;28;20112;-77
2022/06/15 09:01:50;;;;;;;10.82;3.20;;;;;;;21.01;55.20;99076.56;5008350;28;20021;-76
2022/06/15 09:04:38;;;;;;;7.47;3.40;;;;;;;20.97;56.45;99072.84;5009422;28;20772;-76
2022/06/15 09:07:18;;;;;;;3.83;2.08;;;;;;;21.36;53.95;99059.31;5006104;28;20025;-77
2022/06/15 09:09:57;;;;;;;11.20;2.85;;;;;;;21.24;54.31;99069.97;5018699;28;20053;-77
2022/06/15 09:12:50;;;;;;;7.18;3.00;;;;;;;20.77;55.71;99076.09;5005601;28;20053;-77
2022/06/15 09:15:53;;;;;;;9.38;3.03;;;;;;;20.90;57.08;99075.97;5006550;28;20029;-77
2022/06/15 09:18:25;;;;;;;5.13;2.30;;;;;;;21.35;54.49;99075.94;5007588;28;20446;-76
2022/06/15 09:21:05;;;;;;;3.53;2.33;;;;;;;21.82;52.99;99066.97;5001393;28;20041;-77
2022/06/15 09:23:30;;;;;;;7.63;2.95;;;;;;;21.78;55.20;99078.78;5005198;28;20588;-77
2022/06/15 09:26:02;;;;;;;6.07;2.80;;;;;;;21.72;54.97;99072.72;5010453;28;20109;-77
2022/06/15 09:28:37;;;;;;;10.93;2.55;;;;;;;21.38;54.03;99072.59;5006080;28;20017;-77
2022/06/15 09:31:09;;;;;;;17.23;2.80;;;;;;;21.41;54.57;99066.53;5009169;28;20418;-77
2022/06/15 09:33:42;;;;;;;6.68;2.85;;;;;;;21.12;55.28;99072.47;5007666;28;20060;-77
2022/06/15 09:36:17;;;;;;;9.57;3.40;;;;;;;21.40;53.64;99068.47;5025661;28;20056;-77
2022/06/15 09:38:43;;;;;;;7.03;2.42;;;;;;;21.37;52.29;99066.38;5008006;28;20030;-77
2022/06/15 09:41:27;;;;;;;13.98;3.28;;;;;;;20.93;50.90;99074.56;4991157;28;20037;-77
2022/06/15 09:44:08;;;;;;;3.42;2.25;;;;;;;21.77;51.93;99067.16;5003952;28;20474;-76
2022/06/15 09:46:44;;;;;;;7.13;2.88;;;;;;;21.29;49.75;99069.06;5004555;28;20061;-76
2022/06/15 09:49:36;;;;;;;5.55;2.85;;;;;;;21.53;51.05;99064.84;5006823;28;20030;-77
2022/06/15 09:52:07;;;;;;;6.72;2.25;;;;;;;21.89;50.73;99058.38;4998795;28;20489;-77
2022/06/15 09:55:14;;;;;;;7.28;2.20;;;;;;;21.87;48.70;99055.19;5024567;28;20030;-77
2022/06/15 09:57:41;;;;;;;3.17;2.17;;;;;;;21.59;48.49;99062.78;5008999;28;20025;-76
2022/06/15 10:00:10;;;;;;;4.18;2.10;;;;;;;22.47;50.64;99060.69;5007436;28;20129;-77
2022/06/15 10:02:38;;;;;;;4.22;1.88;;;;;;;23.05;49.20;99066.38;5006598;28;20053;-77
2022/06/15 10:05:07;;;;;;;3.50;2.20;;;;;;;23.19;47.25;99055.28;5000942;28;20025;-77
2022/06/15 10:07:37;;;;;;;4.32;2.38;;;;;;;23.08;48.67;99052.94;5004045;28;20047;-77
2022/06/15 10:10:23;;;;;;;5.13;1.77;;;;;;;21.96;43.29;99056.00;5007414;28;20391;-76
2022/06/15 10:12:58;;;;;;;4.90;2.20;;;;;;;22.11;44.88;99047.38;5008589;28;20109;-77
2022/06/15 10:15:32;;;;;;;3.40;2.58;;;;;;;22.39;47.99;99044.03;5004119;28;20034;-76
2022/06/15 10:18:02;;;;;;;3.53;1.92;;;;;;;22.44;45.12;99050.44;4983871;28;20531;-77
2022/06/15 10:20:35;;;;;;;6.03;2.38;;;;;;;22.44;46.21;99050.44;5001155;28;20030;-77
2022/06/15 10:23:18;;;;;;;6.82;2.15;;;;;;;23.26;47.84;99045.50;5015779;28;20057;-77
2022/06/15 10:25:51;;;;;;;4.95;2.20;;;;;;;23.71;47.46;99048.50;5009935;28;20026;-77
2022/06/15 10:28:32;;;;;;;4.97;2.30;;;;;;;23.79;46.64;99040.28;4998849;28;20033;-77
2022/06/15 10:31:05;;;;;;;13.95;2.67;;;;;;;23.92;44.45;99038.44;5008329;28;20041;-77
2022/06/15 10:33:44;;;;;;;5.45;2.60;;;;;;;24.04;45.43;99035.78;5007612;28;20034;-77
2022/06/15 10:36:35;;;;;;;6.32;2.10;;;;;;;23.87;46.28;99037.84;5009844;28;20485;-77
2022/06/15 10:39:13;;;;;;;5.00;3.33;;;;;;;23.64;44.65;99026.41;4999878;28;20037;-77
2022/06/15 10:41:45;;;;;;;4.25;1.98;;;;;;;23.91;42.97;99025.13;5007898;28;20343;-77
2022/06/15 10:44:30;;;;;;;3.63;1.75;;;;;;;24.51;46.82;99030.94;5007214;28;20029;-77
2022/06/15 10:47:20;;;;;;;5.78;2.22;;;;;;;24.59;43.99;99028.13;5002969;28;20040;-77
2022/06/15 10:49:50;;;;;;;7.50;3.10;;;;;;;25.10;43.15;99026.00;5007496;28;20030;-77
2022/06/15 10:52:39;;;;;;;6.10;2.13;;;;;;;25.20;42.43;99020.91;5003176;28;20113;-77
2022/06/15 11:03:41;;;;;;;2.22;1.88;;;;;;;26.29;42.67;99007.16;5009902;28;20041;-78
2022/06/15 11:06:06;;;;;;;4.35;2.13;;;;;;;25.72;39.67;99006.56;5009315;28;20026;-77
2022/06/15 11:08:34;;;;;;;4.78;1.95;;;;;;;25.91;40.75;98993.09;5011463;28;20033;-77
2022/06/15 11:11:26;;;;;;;5.65;2.00;;;;;;;26.30;42.30;99005.22;5008604;28;20037;-77
2022/06/15 11:13:57;;;;;;;5.53;2.20;;;;;;;26.43;40.74;98996.59;5006005;28;20041;-77
2022/06/15 11:19:22;;;;;;;14.13;2.78;;;;;;;25.33;40.98;98994.38;5011140;28;20040;-77
2022/06/15 11:21:51;;;;;;;2.33;2.00;;;;;;;25.52;42.19;98996.56;5007261;28;20049;-77
2022/06/15 11:24:39;;;;;;;7.97;2.70;;;;;;;26.65;40.37;98987.00;5010699;28;20076;-78
2022/06/15 11:27:15;;;;;;;4.30;2.10;;;;;;;26.01;40.13;98987.94;5009764;28;20037;-77
2022/06/15 11:29:53;;;;;;;2.47;1.92;;;;;;;25.95;39.26;98988.50;5007089;28;20428;-77
2022/06/15 11:32:43;;;;;;;3.13;2.13;;;;;;;26.43;40.93;98990.34;5008691;28;20034;-77
2022/06/15 11:35:11;;;;;;;5.53;2.28;;;;;;;27.61;40.63;98982.81;5009541;28;20034;-77
2022/06/15 11:37:55;;;;;;;4.72;2.20;;;;;;;27.93;40.25;98989.84;5006494;28;20659;-78
2022/06/15 11:40:34;;;;;;;6.68;1.90;;;;;;;27.95;40.06;98982.03;5006326;28;20087;-78
2022/06/15 11:43:01;;;;;;;5.15;2.40;;;;;;;28.09;38.77;98982.34;5005347;28;20049;-78
2022/06/15 11:45:36;;;;;;;14.07;2.53;;;;;;;28.27;36.82;98984.66;5007470;28;20135;-78
2022/06/15 11:48:14;;;;;;;6.10;2.30;;;;;;;28.68;36.71;98972.97;5010089;28;20399;-77
2022/06/15 11:50:54;;;;;;;13.38;2.83;;;;;;;27.65;38.12;98970.00;5013559;28;20401;-77
2022/06/15 11:53:44;;;;;;;3.97;2.55;;;;;;;28.45;38.70;98974.81;5009556;28;20033;-77
2022/06/15 11:56:13;;;;;;;4.82;2.15;;;;;;;28.79;37.24;98966.47;5005851;28;20030;-78
2022/06/15 11:58:52;;;;;;;6.00;2.60;;;;;;;28.66;37.57;98956.00;5007288;28;20046;-77
2022/06/15 12:01:23;;;;;;;8.80;2.58;;;;;;;27.35;38.60;98966.13;5003528;28;20032;-77
2022/06/15 12:04:10;;;;;;;3.75;2.17;;;;;;;27.60;39.11;98963.97;5008032;28;20458;-77
2022/06/15 12:06:50;;;;;;;4.22;2.17;;;;;;;28.04;37.68;98966.19;5006432;28;20060;-77